sensor_id;sensor_type;location;lat;lon;timestamp;P1;durP1;ratioP1;P2;durP2;ratioP2
6566;SDS011;3317;43.994;22.878;2022-09-06T00:01:49;8.80;;;5.50;;
6566;SDS011;3317;43.994;22.878;2022-09-06T00:04:18;7.90;;;6.00;;
6566;SDS011;3317;43.994;22.878;2022-09-06T00:06:46;11.00;;;6.10;;
6566;SDS011;3317;43.994;22.878;2022-09-06T00:09:13;8.47;;;5.77;;
6566;SDS011;3317;43.994;22.878;2022-09-06T00:11:40;7.53;;;5.73;;
6566;SDS011;3317;43.994;22.878;2022-09-06T00:14:07;9.03;;;5.90;;
6566;SDS011;3317;43.994;22.878;2022-09-06T00:16:35;7.60;;;5.90;;
6566;SDS011;3317;43.994;22.878;2022-09-06T00:19:04;9.13;;;6.20;;
6566;SDS011;3317;43.994;22.878;2022-09-06T00:21:32;8.60;;;6.50;;
6566;SDS011;3317;43.994;22.878;2022-09-06T00:24:01;8.40;;;6.10;;
6566;SDS011;3317;43.994;22.878;2022-09-06T00:26:28;8.70;;;6.30;;
6566;SDS011;3317;43.994;22.878;2022-09-06T00:28:55;10.50;;;7.10;;
6566;SDS011;3317;43.994;22.878;2022-09-06T00:31:23;7.80;;;6.50;;
6566;SDS011;3317;43.994;22.878;2022-09-06T00:33:53;8.00;;;6.10;;
6566;SDS011;3317;43.994;22.878;2022-09-06T00:36:20;10.00;;;6.47;;
6566;SDS011;3317;43.994;22.878;2022-09-06T00:38:47;8.57;;;6.70;;
6566;SDS011;3317;43.994;22.878;2022-09-06T00:41:14;12.93;;;7.00;;
6566;SDS011;3317;43.994;22.878;2022-09-06T00:43:42;8.60;;;6.50;;
6566;SDS011;3317;43.994;22.878;2022-09-06T00:46:10;9.30;;;6.83;;
6566;SDS011;3317;43.994;22.878;2022-09-06T00:48:41;13.03;;;7.27;;
6566;SDS011;3317;43.994;22.878;2022-09-06T00:51:11;7.80;;;5.40;;
6566;SDS011;3317;43.994;22.878;2022-09-06T00:53:40;11.37;;;6.53;;
6566;SDS011;3317;43.994;22.878;2022-09-06T00:56:07;7.90;;;5.67;;
6566;SDS011;3317;43.994;22.878;2022-09-06T00:58:37;8.73;;;5.90;;
6566;SDS011;3317;43.994;22.878;2022-09-06T01:01:05;8.83;;;6.70;;
6566;SDS011;3317;43.994;22.878;2022-09-06T01:03:32;10.87;;;6.23;;
6566;SDS011;3317;43.994;22.878;2022-09-06T01:06:04;7.80;;;6.43;;
6566;SDS011;3317;43.994;22.878;2022-09-06T01:08:44;9.57;;;7.27;;
6566;SDS011;3317;43.994;22.878;2022-09-06T01:11:49;9.17;;;6.27;;
6566;SDS011;3317;43.994;22.878;2022-09-06T01:14:30;10.97;;;5.93;;
6566;SDS011;3317;43.994;22.878;2022-09-06T01:17:17;7.37;;;6.17;;
6566;SDS011;3317;43.994;22.878;2022-09-06T01:23:05;7.30;;;5.97;;
6566;SDS011;3317;43.994;22.878;2022-09-06T01:25:58;10.67;;;6.20;;
6566;SDS011;3317;43.994;22.878;2022-09-06T01:28:33;8.47;;;6.33;;
6566;SDS011;3317;43.994;22.878;2022-09-06T01:31:10;10.00;;;6.07;;
6566;SDS011;3317;43.994;22.878;2022-09-06T01:33:46;8.80;;;6.07;;
6566;SDS011;3317;43.994;22.878;2022-09-06T01:36:17;8.53;;;5.70;;
6566;SDS011;3317;43.994;22.878;2022-09-06T01:38:48;15.60;;;5.67;;
6566;SDS011;3317;43.994;22.878;2022-09-06T01:41:16;9.60;;;6.37;;
6566;SDS011;3317;43.994;22.878;2022-09-06T01:43:45;9.00;;;5.80;;
6566;SDS011;3317;43.994;22.878;2022-09-06T01:46:18;13.40;;;5.77;;
6566;SDS011;3317;43.994;22.878;2022-09-06T01:48:55;13.50;;;6.40;;
6566;SDS011;3317;43.994;22.878;2022-09-06T01:51:35;7.57;;;5.90;;
6566;SDS011;3317;43.994;22.878;2022-09-06T01:54:16;10.30;;;6.00;;
6566;SDS011;3317;43.994;22.878;2022-09-06T01:56:55;7.63;;;6.00;;
6566;SDS011;3317;43.994;22.878;2022-09-06T01:59:40;9.03;;;6.07;;
6566;SDS011;3317;43.994;22.878;2022-09-06T02:02:18;9.53;;;6.10;;
6566;SDS011;3317;43.994;22.878;2022-09-06T02:04:51;7.23;;;5.43;;
6566;SDS011;3317;43.994;22.878;2022-09-06T02:07:24;9.90;;;6.30;;
6566;SDS011;3317;43.994;22.878;2022-09-06T02:09:56;8.73;;;5.80;;
6566;SDS011;3317;43.994;22.878;2022-09-06T02:12:28;12.10;;;5.77;;
6566;SDS011;3317;43.994;22.878;2022-09-06T02:15:03;8.40;;;6.00;;
6566;SDS011;3317;43.994;22.878;2022-09-06T02:17:34;9.83;;;6.40;;
6566;SDS011;3317;43.994;22.878;2022-09-06T02:20:07;9.60;;;6.03;;
6566;SDS011;3317;43.994;22.878;2022-09-06T02:22:39;7.70;;;6.00;;
6566;SDS011;3317;43.994;22.878;2022-09-06T02:25:10;11.53;;;5.23;;
6566;SDS011;3317;43.994;22.878;2022-09-06T02:27:43;12.57;;;7.83;;
6566;SDS011;3317;43.994;22.878;2022-09-06T02:30:13;8.40;;;6.30;;
6566;SDS011;3317;43.994;22.878;2022-09-06T02:32:41;9.17;;;6.60;;
6566;SDS011;3317;43.994;22.878;2022-09-06T02:35:15;8.93;;;6.40;;
6566;SDS011;3317;43.994;22.878;2022-09-06T02:37:42;7.80;;;5.57;;
6566;SDS011;3317;43.994;22.878;2022-09-06T02:40:10;9.00;;;6.20;;
6566;SDS011;3317;43.994;22.878;2022-09-06T02:42:38;7.50;;;5.57;;
6566;SDS011;3317;43.994;22.878;2022-09-06T02:45:07;9.70;;;5.60;;
6566;SDS011;3317;43.994;22.878;2022-09-06T02:47:37;10.20;;;7.33;;
6566;SDS011;3317;43.994;22.878;2022-09-06T02:50:04;9.23;;;6.13;;
6566;SDS011;3317;43.994;22.878;2022-09-06T02:52:33;8.77;;;6.77;;
6566;SDS011;3317;43.994;22.878;2022-09-06T02:55:00;11.53;;;7.40;;
6566;SDS011;3317;43.994;22.878;2022-09-06T02:57:27;12.40;;;8.60;;
6566;SDS011;3317;43.994;22.878;2022-09-06T02:59:54;11.70;;;7.13;;
6566;SDS011;3317;43.994;22.878;2022-09-06T03:02:21;7.20;;;5.67;;
6566;SDS011;3317;43.994;22.878;2022-09-06T03:04:51;11.50;;;6.77;;
6566;SDS011;3317;43.994;22.878;2022-09-06T03:07:18;7.07;;;4.77;;
6566;SDS011;3317;43.994;22.878;2022-09-06T03:09:45;13.07;;;8.83;;
6566;SDS011;3317;43.994;22.878;2022-09-06T03:12:12;12.00;;;9.10;;
6566;SDS011;3317;43.994;22.878;2022-09-06T03:14:39;13.83;;;8.43;;
6566;SDS011;3317;43.994;22.878;2022-09-06T03:17:06;12.30;;;8.60;;
6566;SDS011;3317;43.994;22.878;2022-09-06T03:19:36;17.77;;;11.20;;
6566;SDS011;3317;43.994;22.878;2022-09-06T03:22:04;10.80;;;8.83;;
6566;SDS011;3317;43.994;22.878;2022-09-06T03:24:31;12.27;;;8.50;;
6566;SDS011;3317;43.994;22.878;2022-09-06T03:26:58;12.00;;;9.07;;
6566;SDS011;3317;43.994;22.878;2022-09-06T03:29:27;13.23;;;9.50;;
6566;SDS011;3317;43.994;22.878;2022-09-06T03:31:54;10.37;;;8.03;;
6566;SDS011;3317;43.994;22.878;2022-09-06T03:34:21;12.30;;;8.87;;
6566;SDS011;3317;43.994;22.878;2022-09-06T03:36:48;13.33;;;9.00;;
6566;SDS011;3317;43.994;22.878;2022-09-06T03:39:17;12.00;;;7.93;;
6566;SDS011;3317;43.994;22.878;2022-09-06T03:41:45;10.60;;;7.93;;
6566;SDS011;3317;43.994;22.878;2022-09-06T03:44:12;10.47;;;8.17;;
6566;SDS011;3317;43.994;22.878;2022-09-06T03:46:39;10.17;;;7.70;;
6566;SDS011;3317;43.994;22.878;2022-09-06T03:49:06;13.73;;;7.87;;
6566;SDS011;3317;43.994;22.878;2022-09-06T03:51:34;14.37;;;8.97;;
6566;SDS011;3317;43.994;22.878;2022-09-06T03:54:02;15.93;;;9.00;;
6566;SDS011;3317;43.994;22.878;2022-09-06T03:56:31;15.57;;;10.50;;
6566;SDS011;3317;43.994;22.878;2022-09-06T03:58:58;10.13;;;7.40;;
6566;SDS011;3317;43.994;22.878;2022-09-06T04:01:25;14.67;;;9.87;;
6566;SDS011;3317;43.994;22.878;2022-09-06T04:03:52;13.10;;;9.03;;
6566;SDS011;3317;43.994;22.878;2022-09-06T04:06:19;13.70;;;9.50;;
6566;SDS011;3317;43.994;22.878;2022-09-06T04:08:46;12.43;;;8.40;;
6566;SDS011;3317;43.994;22.878;2022-09-06T04:11:15;14.93;;;9.60;;
6566;SDS011;3317;43.994;22.878;2022-09-06T04:13:44;13.40;;;9.87;;
6566;SDS011;3317;43.994;22.878;2022-09-06T04:16:11;13.73;;;9.30;;
6566;SDS011;3317;43.994;22.878;2022-09-06T04:18:38;13.63;;;9.67;;
6566;SDS011;3317;43.994;22.878;2022-09-06T04:21:05;13.27;;;9.10;;
6566;SDS011;3317;43.994;22.878;2022-09-06T04:23:34;11.27;;;8.40;;
6566;SDS011;3317;43.994;22.878;2022-09-06T04:26:01;11.83;;;8.17;;
6566;SDS011;3317;43.994;22.878;2022-09-06T04:28:28;12.17;;;8.27;;
6566;SDS011;3317;43.994;22.878;2022-09-06T04:30:59;12.60;;;8.33;;
6566;SDS011;3317;43.994;22.878;2022-09-06T04:33:30;13.10;;;8.10;;
6566;SDS011;3317;43.994;22.878;2022-09-06T04:35:59;10.70;;;8.40;;
6566;SDS011;3317;43.994;22.878;2022-09-06T04:38:27;13.60;;;7.87;;
6566;SDS011;3317;43.994;22.878;2022-09-06T04:41:02;12.70;;;8.30;;
6566;SDS011;3317;43.994;22.878;2022-09-06T04:43:29;13.30;;;8.57;;
6566;SDS011;3317;43.994;22.878;2022-09-06T04:46:02;18.67;;;9.43;;
6566;SDS011;3317;43.994;22.878;2022-09-06T04:48:30;18.13;;;10.17;;
6566;SDS011;3317;43.994;22.878;2022-09-06T04:50:57;17.10;;;10.40;;
6566;SDS011;3317;43.994;22.878;2022-09-06T04:53:26;12.90;;;9.03;;
6566;SDS011;3317;43.994;22.878;2022-09-06T04:55:55;14.00;;;9.00;;
6566;SDS011;3317;43.994;22.878;2022-09-06T04:58:24;15.60;;;8.60;;
6566;SDS011;3317;43.994;22.878;2022-09-06T05:00:51;14.73;;;8.90;;
6566;SDS011;3317;43.994;22.878;2022-09-06T05:03:22;12.50;;;8.50;;
6566;SDS011;3317;43.994;22.878;2022-09-06T05:05:49;16.60;;;9.27;;
6566;SDS011;3317;43.994;22.878;2022-09-06T05:08:16;12.20;;;7.63;;
6566;SDS011;3317;43.994;22.878;2022-09-06T05:10:43;13.57;;;8.60;;
6566;SDS011;3317;43.994;22.878;2022-09-06T05:13:10;12.67;;;9.07;;
6566;SDS011;3317;43.994;22.878;2022-09-06T05:15:37;14.10;;;8.87;;
6566;SDS011;3317;43.994;22.878;2022-09-06T05:18:04;17.90;;;8.60;;
6566;SDS011;3317;43.994;22.878;2022-09-06T05:20:35;25.57;;;8.20;;
6566;SDS011;3317;43.994;22.878;2022-09-06T05:23:02;14.87;;;9.10;;
6566;SDS011;3317;43.994;22.878;2022-09-06T05:25:29;18.57;;;11.20;;
6566;SDS011;3317;43.994;22.878;2022-09-06T05:27:56;15.53;;;10.87;;
6566;SDS011;3317;43.994;22.878;2022-09-06T05:30:23;18.00;;;11.50;;
6566;SDS011;3317;43.994;22.878;2022-09-06T05:32:50;15.07;;;9.97;;
6566;SDS011;3317;43.994;22.878;2022-09-06T05:35:18;13.90;;;9.30;;
6566;SDS011;3317;43.994;22.878;2022-09-06T05:37:46;13.50;;;8.80;;
6566;SDS011;3317;43.994;22.878;2022-09-06T05:40:13;14.47;;;10.10;;
6566;SDS011;3317;43.994;22.878;2022-09-06T05:42:40;16.80;;;12.33;;
6566;SDS011;3317;43.994;22.878;2022-09-06T05:45:07;12.87;;;8.57;;
6566;SDS011;3317;43.994;22.878;2022-09-06T05:47:36;14.77;;;9.87;;
6566;SDS011;3317;43.994;22.878;2022-09-06T05:50:04;13.70;;;10.00;;
6566;SDS011;3317;43.994;22.878;2022-09-06T05:52:32;16.67;;;10.37;;
6566;SDS011;3317;43.994;22.878;2022-09-06T05:55:00;19.53;;;12.00;;
6566;SDS011;3317;43.994;22.878;2022-09-06T05:57:28;18.00;;;11.30;;
6566;SDS011;3317;43.994;22.878;2022-09-06T05:59:56;17.47;;;12.80;;
6566;SDS011;3317;43.994;22.878;2022-09-06T06:02:24;16.93;;;11.90;;
6566;SDS011;3317;43.994;22.878;2022-09-06T06:04:52;17.53;;;13.00;;
6566;SDS011;3317;43.994;22.878;2022-09-06T06:07:27;16.00;;;10.27;;
6566;SDS011;3317;43.994;22.878;2022-09-06T06:09:54;13.37;;;9.40;;
6566;SDS011;3317;43.994;22.878;2022-09-06T06:12:22;16.80;;;12.17;;
6566;SDS011;3317;43.994;22.878;2022-09-06T06:14:50;21.10;;;13.07;;
6566;SDS011;3317;43.994;22.878;2022-09-06T06:17:18;17.50;;;11.43;;
6566;SDS011;3317;43.994;22.878;2022-09-06T06:19:45;17.87;;;11.90;;
6566;SDS011;3317;43.994;22.878;2022-09-06T06:22:13;16.40;;;11.80;;
6566;SDS011;3317;43.994;22.878;2022-09-06T06:24:40;19.60;;;13.10;;
6566;SDS011;3317;43.994;22.878;2022-09-06T06:27:07;16.07;;;11.43;;
6566;SDS011;3317;43.994;22.878;2022-09-06T06:29:38;19.13;;;12.73;;
6566;SDS011;3317;43.994;22.878;2022-09-06T06:32:05;19.40;;;12.90;;
6566;SDS011;3317;43.994;22.878;2022-09-06T06:34:33;19.40;;;12.40;;
6566;SDS011;3317;43.994;22.878;2022-09-06T06:37:01;19.57;;;12.63;;
6566;SDS011;3317;43.994;22.878;2022-09-06T06:39:28;21.73;;;13.40;;
6566;SDS011;3317;43.994;22.878;2022-09-06T06:41:55;15.57;;;11.80;;
6566;SDS011;3317;43.994;22.878;2022-09-06T06:44:22;18.00;;;12.30;;
6566;SDS011;3317;43.994;22.878;2022-09-06T06:46:52;16.73;;;12.73;;
6566;SDS011;3317;43.994;22.878;2022-09-06T06:49:22;20.70;;;12.83;;
6566;SDS011;3317;43.994;22.878;2022-09-06T06:51:49;15.40;;;11.70;;
6566;SDS011;3317;43.994;22.878;2022-09-06T06:54:16;13.77;;;10.43;;
6566;SDS011;3317;43.994;22.878;2022-09-06T06:56:43;18.20;;;11.43;;
6566;SDS011;3317;43.994;22.878;2022-09-06T06:59:10;18.53;;;12.70;;
6566;SDS011;3317;43.994;22.878;2022-09-06T07:01:37;18.57;;;11.37;;
6566;SDS011;3317;43.994;22.878;2022-09-06T07:04:05;16.37;;;11.13;;
6566;SDS011;3317;43.994;22.878;2022-09-06T07:06:48;15.20;;;9.13;;
6566;SDS011;3317;43.994;22.878;2022-09-06T07:09:16;17.07;;;10.77;;
6566;SDS011;3317;43.994;22.878;2022-09-06T07:11:43;14.60;;;11.20;;
6566;SDS011;3317;43.994;22.878;2022-09-06T07:14:12;14.80;;;10.60;;
6566;SDS011;3317;43.994;22.878;2022-09-06T07:16:42;12.13;;;9.83;;
6566;SDS011;3317;43.994;22.878;2022-09-06T07:19:10;19.07;;;10.30;;
6566;SDS011;3317;43.994;22.878;2022-09-06T07:21:37;16.97;;;10.43;;
6566;SDS011;3317;43.994;22.878;2022-09-06T07:24:05;17.73;;;11.63;;
6566;SDS011;3317;43.994;22.878;2022-09-06T07:26:32;17.87;;;10.90;;
6566;SDS011;3317;43.994;22.878;2022-09-06T07:29:01;15.70;;;10.37;;
6566;SDS011;3317;43.994;22.878;2022-09-06T07:31:31;14.87;;;10.47;;
6566;SDS011;3317;43.994;22.878;2022-09-06T07:34:01;14.53;;;10.50;;
6566;SDS011;3317;43.994;22.878;2022-09-06T07:36:30;11.70;;;9.40;;
6566;SDS011;3317;43.994;22.878;2022-09-06T07:39:00;9.87;;;8.47;;
6566;SDS011;3317;43.994;22.878;2022-09-06T07:41:27;13.50;;;10.10;;
6566;SDS011;3317;43.994;22.878;2022-09-06T07:43:54;11.30;;;9.23;;
6566;SDS011;3317;43.994;22.878;2022-09-06T07:46:23;12.60;;;9.77;;
6566;SDS011;3317;43.994;22.878;2022-09-06T07:48:52;12.70;;;9.40;;
6566;SDS011;3317;43.994;22.878;2022-09-06T07:51:19;11.90;;;9.70;;
6566;SDS011;3317;43.994;22.878;2022-09-06T07:53:49;12.17;;;8.70;;
6566;SDS011;3317;43.994;22.878;2022-09-06T07:56:17;13.10;;;10.23;;
6566;SDS011;3317;43.994;22.878;2022-09-06T07:58:46;16.50;;;10.77;;
6566;SDS011;3317;43.994;22.878;2022-09-06T08:01:24;14.13;;;10.30;;
6566;SDS011;3317;43.994;22.878;2022-09-06T08:03:54;10.93;;;8.70;;
6566;SDS011;3317;43.994;22.878;2022-09-06T08:06:24;11.47;;;8.70;;
6566;SDS011;3317;43.994;22.878;2022-09-06T08:08:53;16.67;;;10.70;;
6566;SDS011;3317;43.994;22.878;2022-09-06T08:11:20;12.03;;;7.63;;
6566;SDS011;3317;43.994;22.878;2022-09-06T08:13:49;12.10;;;9.03;;
6566;SDS011;3317;43.994;22.878;2022-09-06T08:16:19;12.40;;;9.60;;
6566;SDS011;3317;43.994;22.878;2022-09-06T08:18:49;13.73;;;9.53;;
6566;SDS011;3317;43.994;22.878;2022-09-06T08:21:20;13.47;;;10.47;;
6566;SDS011;3317;43.994;22.878;2022-09-06T08:23:49;12.50;;;9.17;;
6566;SDS011;3317;43.994;22.878;2022-09-06T08:26:20;11.13;;;7.93;;
6566;SDS011;3317;43.994;22.878;2022-09-06T08:28:51;9.53;;;7.50;;
6566;SDS011;3317;43.994;22.878;2022-09-06T08:31:20;14.77;;;9.80;;
6566;SDS011;3317;43.994;22.878;2022-09-06T08:33:47;11.17;;;8.47;;
6566;SDS011;3317;43.994;22.878;2022-09-06T08:36:15;12.20;;;8.67;;
6566;SDS011;3317;43.994;22.878;2022-09-06T08:38:42;10.20;;;8.07;;
6566;SDS011;3317;43.994;22.878;2022-09-06T08:41:10;13.90;;;9.07;;
6566;SDS011;3317;43.994;22.878;2022-09-06T08:43:55;10.80;;;8.57;;
6566;SDS011;3317;43.994;22.878;2022-09-06T08:46:28;10.90;;;5.63;;
6566;SDS011;3317;43.994;22.878;2022-09-06T08:49:02;13.90;;;6.47;;
6566;SDS011;3317;43.994;22.878;2022-09-06T08:51:45;9.83;;;7.23;;
6566;SDS011;3317;43.994;22.878;2022-09-06T08:54:27;13.73;;;8.27;;
6566;SDS011;3317;43.994;22.878;2022-09-06T08:57:03;11.90;;;8.20;;
6566;SDS011;3317;43.994;22.878;2022-09-06T08:59:38;11.20;;;7.00;;
6566;SDS011;3317;43.994;22.878;2022-09-06T09:02:10;7.40;;;6.23;;
6566;SDS011;3317;43.994;22.878;2022-09-06T09:04:42;7.77;;;6.00;;
6566;SDS011;3317;43.994;22.878;2022-09-06T09:07:15;10.87;;;7.70;;
6566;SDS011;3317;43.994;22.878;2022-09-06T09:09:59;12.40;;;8.20;;
6566;SDS011;3317;43.994;22.878;2022-09-06T09:12:31;9.30;;;6.90;;
6566;SDS011;3317;43.994;22.878;2022-09-06T09:15:09;12.10;;;6.63;;
6566;SDS011;3317;43.994;22.878;2022-09-06T09:17:38;9.50;;;6.70;;
6566;SDS011;3317;43.994;22.878;2022-09-06T09:20:06;8.23;;;6.73;;
6566;SDS011;3317;43.994;22.878;2022-09-06T09:22:35;11.53;;;6.93;;
6566;SDS011;3317;43.994;22.878;2022-09-06T09:25:03;5.43;;;4.93;;
6566;SDS011;3317;43.994;22.878;2022-09-06T09:27:34;8.00;;;6.23;;
6566;SDS011;3317;43.994;22.878;2022-09-06T09:30:06;8.73;;;5.77;;
6566;SDS011;3317;43.994;22.878;2022-09-06T09:32:36;9.47;;;7.17;;
6566;SDS011;3317;43.994;22.878;2022-09-06T09:35:17;10.13;;;6.90;;
6566;SDS011;3317;43.994;22.878;2022-09-06T09:38:00;8.23;;;6.63;;
6566;SDS011;3317;43.994;22.878;2022-09-06T09:40:31;5.33;;;4.77;;
6566;SDS011;3317;43.994;22.878;2022-09-06T09:43:14;6.10;;;4.53;;
6566;SDS011;3317;43.994;22.878;2022-09-06T09:45:45;6.90;;;5.87;;
6566;SDS011;3317;43.994;22.878;2022-09-06T09:48:33;9.60;;;5.40;;
6566;SDS011;3317;43.994;22.878;2022-09-06T09:51:14;8.43;;;6.00;;
6566;SDS011;3317;43.994;22.878;2022-09-06T09:53:50;8.20;;;5.90;;
6566;SDS011;3317;43.994;22.878;2022-09-06T09:56:18;9.60;;;6.87;;
6566;SDS011;3317;43.994;22.878;2022-09-06T09:59:05;6.70;;;5.60;;
6566;SDS011;3317;43.994;22.878;2022-09-06T10:01:44;7.67;;;6.10;;
6566;SDS011;3317;43.994;22.878;2022-09-06T10:04:16;8.30;;;6.17;;
6566;SDS011;3317;43.994;22.878;2022-09-06T10:06:45;8.53;;;5.40;;
6566;SDS011;3317;43.994;22.878;2022-09-06T10:09:28;7.90;;;5.50;;
6566;SDS011;3317;43.994;22.878;2022-09-06T10:11:58;8.13;;;6.00;;
6566;SDS011;3317;43.994;22.878;2022-09-06T10:14:27;7.67;;;6.30;;
6566;SDS011;3317;43.994;22.878;2022-09-06T10:16:57;8.13;;;4.83;;
6566;SDS011;3317;43.994;22.878;2022-09-06T10:25:13;7.33;;;6.33;;
6566;SDS011;3317;43.994;22.878;2022-09-06T10:31:06;7.73;;;6.00;;
6566;SDS011;3317;43.994;22.878;2022-09-06T10:33:53;8.43;;;6.33;;
6566;SDS011;3317;43.994;22.878;2022-09-06T10:36:34;5.73;;;4.30;;
6566;SDS011;3317;43.994;22.878;2022-09-06T10:39:06;6.17;;;5.00;;
6566;SDS011;3317;43.994;22.878;2022-09-06T10:41:50;6.70;;;5.20;;
6566;SDS011;3317;43.994;22.878;2022-09-06T10:44:33;6.27;;;5.00;;
6566;SDS011;3317;43.994;22.878;2022-09-06T10:47:14;5.83;;;4.70;;
6566;SDS011;3317;43.994;22.878;2022-09-06T10:49:43;5.37;;;4.83;;
6566;SDS011;3317;43.994;22.878;2022-09-06T10:52:14;7.30;;;4.93;;
6566;SDS011;3317;43.994;22.878;2022-09-06T10:54:48;11.93;;;5.20;;
6566;SDS011;3317;43.994;22.878;2022-09-06T10:57:24;10.27;;;5.77;;
6566;SDS011;3317;43.994;22.878;2022-09-06T11:00:01;5.03;;;4.53;;
6566;SDS011;3317;43.994;22.878;2022-09-06T11:02:43;25.13;;;5.10;;
6566;SDS011;3317;43.994;22.878;2022-09-06T11:05:18;9.87;;;4.97;;
6566;SDS011;3317;43.994;22.878;2022-09-06T11:07:51;5.80;;;5.03;;
6566;SDS011;3317;43.994;22.878;2022-09-06T11:10:22;6.43;;;4.97;;
6566;SDS011;3317;43.994;22.878;2022-09-06T11:12:53;5.77;;;4.93;;
6566;SDS011;3317;43.994;22.878;2022-09-06T11:15:27;5.27;;;4.70;;
6566;SDS011;3317;43.994;22.878;2022-09-06T11:18:00;6.30;;;4.50;;
6566;SDS011;3317;43.994;22.878;2022-09-06T11:20:34;6.63;;;4.90;;
6566;SDS011;3317;43.994;22.878;2022-09-06T11:26:05;5.20;;;4.30;;
6566;SDS011;3317;43.994;22.878;2022-09-06T11:28:51;7.70;;;4.87;;
6566;SDS011;3317;43.994;22.878;2022-09-06T11:31:21;5.63;;;4.93;;
6566;SDS011;3317;43.994;22.878;2022-09-06T11:34:00;7.20;;;5.47;;
6566;SDS011;3317;43.994;22.878;2022-09-06T11:36:35;7.53;;;5.20;;
6566;SDS011;3317;43.994;22.878;2022-09-06T11:39:05;7.03;;;4.80;;
6566;SDS011;3317;43.994;22.878;2022-09-06T11:41:34;5.87;;;4.77;;
6566;SDS011;3317;43.994;22.878;2022-09-06T11:44:04;4.53;;;4.13;;
6566;SDS011;3317;43.994;22.878;2022-09-06T11:49:36;4.40;;;4.00;;
6566;SDS011;3317;43.994;22.878;2022-09-06T11:55:31;6.10;;;4.40;;
6566;SDS011;3317;43.994;22.878;2022-09-06T11:58:03;7.10;;;4.50;;
6566;SDS011;3317;43.994;22.878;2022-09-06T12:00:37;5.10;;;3.90;;
6566;SDS011;3317;43.994;22.878;2022-09-06T12:03:06;4.40;;;4.00;;
6566;SDS011;3317;43.994;22.878;2022-09-06T12:05:57;7.60;;;4.73;;
6566;SDS011;3317;43.994;22.878;2022-09-06T12:08:44;5.70;;;4.00;;
6566;SDS011;3317;43.994;22.878;2022-09-06T12:11:31;6.87;;;5.30;;
6566;SDS011;3317;43.994;22.878;2022-09-06T12:14:01;8.33;;;5.27;;
6566;SDS011;3317;43.994;22.878;2022-09-06T12:19:46;6.70;;;5.23;;
6566;SDS011;3317;43.994;22.878;2022-09-06T12:31:22;6.27;;;4.90;;
6566;SDS011;3317;43.994;22.878;2022-09-06T12:33:56;5.53;;;5.03;;
6566;SDS011;3317;43.994;22.878;2022-09-06T12:36:24;6.00;;;4.40;;
6566;SDS011;3317;43.994;22.878;2022-09-06T12:38:56;5.50;;;5.00;;
6566;SDS011;3317;43.994;22.878;2022-09-06T12:41:26;7.13;;;5.17;;
6566;SDS011;3317;43.994;22.878;2022-09-06T12:43:56;6.47;;;5.17;;
6566;SDS011;3317;43.994;22.878;2022-09-06T12:46:26;5.70;;;4.53;;
6566;SDS011;3317;43.994;22.878;2022-09-06T12:49:00;6.03;;;5.17;;
6566;SDS011;3317;43.994;22.878;2022-09-06T12:51:29;4.93;;;4.43;;
6566;SDS011;3317;43.994;22.878;2022-09-06T12:53:57;10.10;;;5.27;;
6566;SDS011;3317;43.994;22.878;2022-09-06T12:56:26;9.23;;;4.70;;
6566;SDS011;3317;43.994;22.878;2022-09-06T13:01:42;7.97;;;5.00;;
6566;SDS011;3317;43.994;22.878;2022-09-06T13:04:22;6.03;;;4.97;;
6566;SDS011;3317;43.994;22.878;2022-09-06T13:06:54;7.90;;;4.53;;
6566;SDS011;3317;43.994;22.878;2022-09-06T13:09:22;6.60;;;5.30;;
6566;SDS011;3317;43.994;22.878;2022-09-06T13:11:55;8.30;;;5.73;;
6566;SDS011;3317;43.994;22.878;2022-09-06T13:14:30;6.87;;;5.63;;
6566;SDS011;3317;43.994;22.878;2022-09-06T13:16:59;8.37;;;5.37;;
6566;SDS011;3317;43.994;22.878;2022-09-06T13:19:31;12.80;;;5.20;;
6566;SDS011;3317;43.994;22.878;2022-09-06T13:22:02;9.63;;;5.13;;
6566;SDS011;3317;43.994;22.878;2022-09-06T13:24:39;5.73;;;4.97;;
6566;SDS011;3317;43.994;22.878;2022-09-06T13:27:22;8.13;;;5.47;;
6566;SDS011;3317;43.994;22.878;2022-09-06T13:29:56;5.43;;;4.73;;
6566;SDS011;3317;43.994;22.878;2022-09-06T13:32:25;6.40;;;5.60;;
6566;SDS011;3317;43.994;22.878;2022-09-06T13:34:52;8.67;;;5.23;;
6566;SDS011;3317;43.994;22.878;2022-09-06T13:37:22;6.80;;;4.80;;
6566;SDS011;3317;43.994;22.878;2022-09-06T13:39:50;5.40;;;4.70;;
6566;SDS011;3317;43.994;22.878;2022-09-06T13:42:27;6.90;;;4.97;;
6566;SDS011;3317;43.994;22.878;2022-09-06T13:45:11;7.07;;;5.90;;
6566;SDS011;3317;43.994;22.878;2022-09-06T13:47:44;5.07;;;4.50;;
6566;SDS011;3317;43.994;22.878;2022-09-06T13:50:11;6.43;;;5.27;;
6566;SDS011;3317;43.994;22.878;2022-09-06T13:52:38;7.33;;;5.50;;
6566;SDS011;3317;43.994;22.878;2022-09-06T13:55:06;8.43;;;5.40;;
6566;SDS011;3317;43.994;22.878;2022-09-06T13:57:34;6.60;;;5.27;;
6566;SDS011;3317;43.994;22.878;2022-09-06T14:00:03;6.30;;;5.20;;
6566;SDS011;3317;43.994;22.878;2022-09-06T14:02:31;7.40;;;6.03;;
6566;SDS011;3317;43.994;22.878;2022-09-06T14:04:59;7.80;;;5.10;;
6566;SDS011;3317;43.994;22.878;2022-09-06T14:07:26;7.00;;;5.70;;
6566;SDS011;3317;43.994;22.878;2022-09-06T14:09:54;6.27;;;5.67;;
6566;SDS011;3317;43.994;22.878;2022-09-06T14:12:21;7.57;;;5.80;;
6566;SDS011;3317;43.994;22.878;2022-09-06T14:14:48;8.47;;;5.17;;
6566;SDS011;3317;43.994;22.878;2022-09-06T14:17:21;9.17;;;5.60;;
6566;SDS011;3317;43.994;22.878;2022-09-06T14:19:48;6.30;;;5.70;;
6566;SDS011;3317;43.994;22.878;2022-09-06T14:22:15;7.13;;;5.80;;
6566;SDS011;3317;43.994;22.878;2022-09-06T14:24:42;5.50;;;4.80;;
6566;SDS011;3317;43.994;22.878;2022-09-06T14:27:10;7.37;;;5.93;;
6566;SDS011;3317;43.994;22.878;2022-09-06T14:29:38;7.50;;;6.17;;
6566;SDS011;3317;43.994;22.878;2022-09-06T14:32:06;7.47;;;5.93;;
6566;SDS011;3317;43.994;22.878;2022-09-06T14:34:35;6.90;;;5.43;;
6566;SDS011;3317;43.994;22.878;2022-09-06T14:37:02;8.90;;;5.73;;
6566;SDS011;3317;43.994;22.878;2022-09-06T14:39:29;6.70;;;5.50;;
6566;SDS011;3317;43.994;22.878;2022-09-06T14:41:58;7.73;;;5.87;;
6566;SDS011;3317;43.994;22.878;2022-09-06T14:44:25;7.20;;;5.63;;
6566;SDS011;3317;43.994;22.878;2022-09-06T14:46:52;7.20;;;5.23;;
6566;SDS011;3317;43.994;22.878;2022-09-06T14:49:19;9.03;;;5.30;;
6566;SDS011;3317;43.994;22.878;2022-09-06T14:51:50;7.93;;;6.03;;
6566;SDS011;3317;43.994;22.878;2022-09-06T14:54:20;7.73;;;5.77;;
6566;SDS011;3317;43.994;22.878;2022-09-06T14:56:47;7.03;;;5.07;;
6566;SDS011;3317;43.994;22.878;2022-09-06T14:59:14;6.23;;;5.20;;
6566;SDS011;3317;43.994;22.878;2022-09-06T15:01:41;8.70;;;5.50;;
6566;SDS011;3317;43.994;22.878;2022-09-06T15:04:09;5.77;;;5.07;;
6566;SDS011;3317;43.994;22.878;2022-09-06T15:06:36;6.47;;;5.50;;
6566;SDS011;3317;43.994;22.878;2022-09-06T15:09:12;7.13;;;5.03;;
6566;SDS011;3317;43.994;22.878;2022-09-06T15:11:40;6.07;;;5.20;;
6566;SDS011;3317;43.994;22.878;2022-09-06T15:14:11;6.77;;;5.90;;
6566;SDS011;3317;43.994;22.878;2022-09-06T15:16:40;7.40;;;6.07;;
6566;SDS011;3317;43.994;22.878;2022-09-06T15:19:07;6.60;;;5.90;;
6566;SDS011;3317;43.994;22.878;2022-09-06T15:21:34;7.57;;;5.87;;
6566;SDS011;3317;43.994;22.878;2022-09-06T15:24:02;6.80;;;5.73;;
6566;SDS011;3317;43.994;22.878;2022-09-06T15:26:31;7.03;;;5.37;;
6566;SDS011;3317;43.994;22.878;2022-09-06T15:28:59;10.03;;;5.47;;
6566;SDS011;3317;43.994;22.878;2022-09-06T15:31:26;6.40;;;5.50;;
6566;SDS011;3317;43.994;22.878;2022-09-06T15:33:56;5.97;;;5.37;;
6566;SDS011;3317;43.994;22.878;2022-09-06T15:36:23;7.50;;;5.53;;
6566;SDS011;3317;43.994;22.878;2022-09-06T15:38:50;6.10;;;5.40;;
6566;SDS011;3317;43.994;22.878;2022-09-06T15:41:19;6.77;;;5.40;;
6566;SDS011;3317;43.994;22.878;2022-09-06T15:43:52;7.03;;;5.10;;
6566;SDS011;3317;43.994;22.878;2022-09-06T15:46:38;6.30;;;5.37;;
6566;SDS011;3317;43.994;22.878;2022-09-06T15:49:11;10.30;;;5.10;;
6566;SDS011;3317;43.994;22.878;2022-09-06T15:51:40;8.67;;;5.57;;